Time;durP1;ratioP1;P1;durP2;ratioP2;P2;SDS_P1;SDS_P2;PMS_P1;PMS_P2;Temp;Humidity;BMP_temperature;BMP_pressure;BME280_temperature;BME280_humidity;BME280_pressure;Samples;Min_cycle;Max_cycle;Signal;HPM_P1;HPM_P2
2022/01/15 00:00:34;;;;;;;27.30;20.00;;;;;;;1.08;87.95;98779.07;109579;1274;22377;-70
2022/01/15 00:03:11;;;;;;;32.10;20.50;;;;;;;1.06;88.02;98783.40;109632;1274;22463;-70
2022/01/15 00:05:39;;;;;;;27.30;20.40;;;;;;;1.04;87.94;98779.30;109657;1273;22501;-69
2022/01/15 00:08:07;;;;;;;31.20;21.50;;;;;;;1.01;87.92;98776.27;109585;1273;22457;-68
2022/01/15 00:10:35;;;;;;;34.50;22.90;;;;;;;1.02;87.99;98775.60;109646;1273;22356;-70
2022/01/15 00:13:10;;;;;;;39.40;25.90;;;;;;;1.04;87.77;98778.92;109643;1274;22942;-71
2022/01/15 00:15:46;;;;;;;37.30;26.10;;;;;;;1.02;87.83;98784.66;109681;1274;23217;-69
2022/01/15 00:18:15;;;;;;;41.90;25.90;;;;;;;0.99;88.13;98783.95;109661;1274;22481;-70
2022/01/15 00:20:44;;;;;;;40.40;26.40;;;;;;;0.99;87.77;98785.70;109586;1274;22649;-70
2022/01/15 00:23:12;;;;;;;38.70;24.40;;;;;;;0.99;87.84;98781.77;109654;1274;22575;-70
2022/01/15 00:25:40;;;;;;;38.40;24.50;;;;;;;0.99;87.87;98779.16;109662;1273;22356;-70
2022/01/15 00:28:08;;;;;;;39.40;26.00;;;;;;;0.96;87.70;98777.11;109623;1274;22542;-70
2022/01/15 00:30:36;;;;;;;37.00;23.30;;;;;;;0.90;87.87;98778.90;109580;1274;22948;-70
2022/01/15 00:33:04;;;;;;;32.00;20.90;;;;;;;0.87;87.70;98784.73;109554;1274;23107;-71
2022/01/15 00:35:33;;;;;;;25.20;20.10;;;;;;;0.85;87.77;98786.58;109641;1274;22673;-70
2022/01/15 00:38:02;;;;;;;28.80;19.90;;;;;;;0.85;88.00;98787.02;109648;1273;22536;-69
2022/01/15 00:40:30;;;;;;;30.70;22.10;;;;;;;0.86;87.90;98793.14;109626;1274;22395;-69
2022/01/15 00:42:58;;;;;;;42.70;26.80;;;;;;;0.86;87.99;98793.38;109638;1272;22527;-69
2022/01/15 00:45:32;;;;;;;38.70;24.90;;;;;;;0.83;87.90;98793.39;109576;1274;22392;-71
2022/01/15 00:48:00;;;;;;;35.90;23.10;;;;;;;0.80;88.01;98793.25;109677;1272;22438;-71
2022/01/15 00:50:28;;;;;;;33.50;22.40;;;;;;;0.79;87.79;98790.94;109672;1274;22410;-71
2022/01/15 00:52:57;;;;;;;31.60;22.00;;;;;;;0.77;87.71;98787.11;109652;1273;22585;-71
2022/01/15 00:55:25;;;;;;;31.30;22.80;;;;;;;0.74;87.93;98787.61;109660;1274;22484;-71
2022/01/15 00:57:53;;;;;;;35.10;24.80;;;;;;;0.69;87.94;98790.38;109611;1274;22392;-73
2022/01/15 01:00:23;;;;;;;30.90;21.50;;;;;;;0.65;87.84;98791.62;109661;1272;22511;-73
2022/01/15 01:02:52;;;;;;;27.50;20.80;;;;;;;0.64;87.88;98789.51;109752;1274;22442;-71
2022/01/15 01:05:21;;;;;;;28.50;21.40;;;;;;;0.63;87.79;98792.02;109610;1274;23123;-75
2022/01/15 01:07:49;;;;;;;31.60;21.60;;;;;;;0.62;87.81;98794.55;109561;1274;22407;-71
2022/01/15 01:23:37;;;;;;;34.60;23.00;;;;;;;0.32;88.28;98802.48;109538;1274;137699;-72
2022/01/15 01:26:25;;;;;;;30.30;23.00;;;;;;;0.26;88.23;98795.11;109667;1274;22442;-74
2022/01/15 01:29:21;;;;;;;30.90;21.20;;;;;;;0.27;88.25;98794.78;109684;1274;22414;-73
2022/01/15 01:32:03;;;;;;;32.70;22.30;;;;;;;0.28;88.31;98794.41;109618;1274;22484;-73
2022/01/15 01:34:35;;;;;;;30.90;22.40;;;;;;;0.29;88.29;98799.25;109669;1272;22524;-72
2022/01/15 01:40:13;;;;;;;28.50;19.70;;;;;;;0.30;88.37;98801.95;109618;1274;22536;-73
2022/01/15 01:42:53;;;;;;;27.20;19.70;;;;;;;0.30;88.15;98804.48;109675;1272;22448;-74
2022/01/15 01:45:17;;;;;;;31.00;20.20;;;;;;;0.30;88.22;98803.87;109605;1273;22589;-74
2022/01/15 01:47:45;;;;;;;30.90;21.30;;;;;;;0.31;88.23;98803.98;109670;1273;22831;-74
2022/01/15 01:50:26;;;;;;;35.50;21.20;;;;;;;0.31;88.12;98805.79;109673;1273;22463;-74
2022/01/15 01:52:58;;;;;;;31.50;20.50;;;;;;;0.30;88.06;98807.82;109611;1274;22545;-74
2022/01/15 01:55:28;;;;;;;30.50;18.70;;;;;;;0.28;87.88;98813.33;109634;1274;22386;-74
2022/01/15 01:57:59;;;;;;;28.30;19.30;;;;;;;0.30;87.95;98807.50;109494;1274;22420;-74
2022/01/15 02:00:30;;;;;;;29.40;19.10;;;;;;;0.31;87.98;98806.17;109689;1273;23095;-75
2022/01/15 02:03:00;;;;;;;31.00;18.30;;;;;;;0.28;87.89;98809.30;109671;1273;22439;-73
2022/01/15 02:05:29;;;;;;;28.60;20.10;;;;;;;0.24;87.98;98808.73;109585;1274;22473;-74
2022/01/15 02:07:58;;;;;;;36.50;19.30;;;;;;;0.22;87.97;98807.77;109691;1273;22406;-74
2022/01/15 02:10:30;;;;;;;27.00;16.50;;;;;;;0.20;87.85;98803.85;109675;1274;23088;-72
2022/01/15 02:13:00;;;;;;;27.80;17.70;;;;;;;0.22;87.83;98802.17;109699;1273;22412;-72
2022/01/15 02:15:30;;;;;;;29.70;18.80;;;;;;;0.23;87.91;98799.85;109726;1274;23298;-72
2022/01/15 02:17:58;;;;;;;31.50;18.70;;;;;;;0.22;87.79;98799.69;109666;1274;22440;-73
2022/01/15 02:26:06;;;;;;;28.50;18.10;;;;;;;0.14;87.68;98801.48;109607;1274;22577;-72
2022/01/15 02:28:38;;;;;;;29.10;19.00;;;;;;;0.13;87.68;98799.11;109131;1273;622368;-72
2022/01/15 02:31:09;;;;;;;31.20;19.50;;;;;;;0.10;87.68;98797.09;109686;1274;23190;-72
2022/01/15 02:33:41;;;;;;;26.50;16.80;;;;;;;0.07;87.69;98794.80;109651;1273;22309;-71
2022/01/15 02:36:14;;;;;;;30.50;17.40;;;;;;;0.04;87.56;98796.16;109683;1273;22484;-71
2022/01/15 02:38:43;;;;;;;29.50;19.70;;;;;;;-0.01;87.60;98794.71;109601;1274;22708;-71
2022/01/15 02:41:15;;;;;;;29.20;18.30;;;;;;;-0.06;87.71;98792.33;109613;1274;22442;-72
2022/01/15 02:43:46;;;;;;;28.80;18.50;;;;;;;-0.06;87.72;98798.40;109685;1274;22448;-71
2022/01/15 02:49:00;;;;;;;26.00;16.10;;;;;;;-0.11;87.72;98797.23;109683;1273;22939;-72
2022/01/15 02:51:34;;;;;;;30.30;17.30;;;;;;;-0.10;87.79;98805.09;109558;1274;22340;-72
2022/01/15 02:54:08;;;;;;;27.50;17.60;;;;;;;-0.13;87.88;98804.69;109667;1273;22511;-72
2022/01/15 02:56:43;;;;;;;29.90;19.10;;;;;;;-0.17;87.86;98809.05;109504;1273;22449;-71
2022/01/15 02:59:19;;;;;;;30.50;18.00;;;;;;;-0.17;87.88;98812.52;109682;1273;22472;-72
2022/01/15 03:01:50;;;;;;;31.90;19.80;;;;;;;-0.14;87.79;98819.08;109611;1274;22401;-71
2022/01/15 03:04:20;;;;;;;28.20;19.00;;;;;;;-0.12;87.87;98817.52;109609;1274;22287;-72
2022/01/15 03:06:51;;;;;;;28.70;18.90;;;;;;;-0.09;87.84;98817.36;109688;1274;22447;-73
2022/01/15 03:09:21;;;;;;;33.50;18.90;;;;;;;-0.11;87.73;98818.98;109676;1272;22533;-73
2022/01/15 03:11:50;;;;;;;27.30;17.30;;;;;;;-0.12;87.79;98812.88;109610;1274;23237;-71
2022/01/15 03:14:20;;;;;;;31.30;17.80;;;;;;;-0.12;87.71;98817.00;109681;1274;23643;-71
2022/01/15 03:16:52;;;;;;;30.50;18.30;;;;;;;-0.12;87.61;98821.93;109525;1274;23100;-71
2022/01/15 03:19:44;;;;;;;31.80;20.20;;;;;;;-0.15;87.75;98824.13;109686;1274;22451;-71
2022/01/15 03:22:12;;;;;;;25.10;17.00;;;;;;;-0.18;87.65;98823.52;109687;1273;22462;-70
2022/01/15 03:24:40;;;;;;;30.00;17.90;;;;;;;-0.22;87.69;98821.58;109649;1273;23017;-71
2022/01/15 03:27:08;;;;;;;28.50;19.00;;;;;;;-0.24;87.63;98821.21;109639;1274;23176;-72
2022/01/15 03:29:36;;;;;;;33.80;20.40;;;;;;;-0.25;87.73;98819.70;109667;1273;22510;-71
2022/01/15 03:32:05;;;;;;;29.20;18.80;;;;;;;-0.29;87.76;98818.89;109662;1274;22604;-71
2022/01/15 03:34:33;;;;;;;25.80;16.40;;;;;;;-0.32;87.76;98820.36;109675;1274;23596;-71
2022/01/15 03:37:02;;;;;;;33.90;20.00;;;;;;;-0.35;87.86;98822.28;109661;1274;23203;-71
2022/01/15 03:39:30;;;;;;;25.10;17.20;;;;;;;-0.35;87.70;98826.52;109644;1273;23026;-70
2022/01/15 03:42:12;;;;;;;29.10;20.50;;;;;;;-0.33;87.79;98827.81;109667;1273;23145;-70
2022/01/15 03:44:47;;;;;;;40.80;21.50;;;;;;;-0.33;87.63;98829.41;109687;1274;22427;-71
2022/01/15 03:47:21;;;;;;;49.90;24.20;;;;;;;-0.33;87.72;98832.95;109677;1273;22453;-70
2022/01/15 03:49:55;;;;;;;40.00;22.90;;;;;;;-0.33;87.93;98835.39;109694;1274;22462;-70
2022/01/15 03:52:24;;;;;;;29.80;17.70;;;;;;;-0.33;87.86;98835.84;109683;1274;22531;-70
2022/01/15 03:54:58;;;;;;;40.90;21.60;;;;;;;-0.32;87.66;98835.73;109593;1273;22449;-70
2022/01/15 03:57:31;;;;;;;41.40;24.80;;;;;;;-0.34;87.78;98833.73;109597;1274;22802;-70
2022/01/15 04:00:20;;;;;;;34.70;21.90;;;;;;;-0.35;87.79;98834.14;109691;1274;22564;-70
2022/01/15 04:02:49;;;;;;;36.80;21.80;;;;;;;-0.35;87.83;98836.71;109665;1273;23218;-70
2022/01/15 04:05:19;;;;;;;38.80;21.90;;;;;;;-0.34;87.78;98834.14;109697;1272;22464;-70
2022/01/15 04:07:52;;;;;;;37.90;24.90;;;;;;;-0.32;87.80;98835.98;109686;1273;22831;-72
2022/01/15 04:10:26;;;;;;;41.90;24.00;;;;;;;-0.33;87.76;98836.06;109684;1273;22396;-73
2022/01/15 04:12:54;;;;;;;41.70;25.20;;;;;;;-0.34;87.72;98838.70;109680;1274;22454;-72
2022/01/15 04:15:22;;;;;;;44.20;21.50;;;;;;;-0.38;87.61;98842.75;109679;1272;22397;-72
2022/01/15 04:17:50;;;;;;;32.40;20.00;;;;;;;-0.36;87.71;98838.75;109679;1274;22453;-72
2022/01/15 04:20:22;;;;;;;49.00;23.80;;;;;;;-0.35;87.72;98848.08;109657;1274;22464;-72
2022/01/15 04:22:52;;;;;;;37.90;22.80;;;;;;;-0.35;87.61;98847.30;109674;1273;22427;-72
2022/01/15 04:25:21;;;;;;;42.80;24.60;;;;;;;-0.34;87.86;98846.31;109678;1273;22241;-71
2022/01/15 04:27:50;;;;;;;42.60;24.10;;;;;;;-0.35;87.72;98847.46;109654;1274;22425;-72
2022/01/15 04:30:21;;;;;;;42.10;23.20;;;;;;;-0.35;87.61;98846.45;109660;1274;23214;-72
2022/01/15 04:32:49;;;;;;;40.50;23.40;;;;;;;-0.35;87.73;98852.56;109659;1274;23324;-71
2022/01/15 04:35:17;;;;;;;37.30;25.50;;;;;;;-0.32;87.65;98852.89;109687;1274;22435;-71
2022/01/15 04:37:49;;;;;;;47.40;28.50;;;;;;;-0.30;87.51;98856.86;109673;1273;23313;-71
2022/01/15 04:40:17;;;;;;;54.00;32.40;;;;;;;-0.30;87.75;98855.80;109686;1272;22449;-70
2022/01/15 04:42:45;;;;;;;50.30;25.70;;;;;;;-0.32;87.72;98858.33;109671;1274;22591;-71
2022/01/15 04:45:13;;;;;;;40.90;24.20;;;;;;;-0.33;87.64;98855.81;109592;1274;22473;-71
2022/01/15 04:47:41;;;;;;;31.60;21.30;;;;;;;-0.33;87.66;98850.68;109663;1274;22585;-71
2022/01/15 04:50:13;;;;;;;32.20;24.20;;;;;;;-0.32;87.73;98850.39;109681;1273;22453;-70
2022/01/15 04:52:41;;;;;;;32.30;23.10;;;;;;;-0.31;87.62;98851.77;109594;1272;22755;-71
2022/01/15 04:55:11;;;;;;;33.40;24.40;;;;;;;-0.35;87.70;98856.34;109675;1273;22457;-72
2022/01/15 04:57:40;;;;;;;30.40;20.20;;;;;;;-0.40;87.84;98856.22;109674;1272;22396;-71
2022/01/15 05:00:14;;;;;;;29.10;21.20;;;;;;;-0.41;87.82;98853.58;109669;1273;23103;-72
2022/01/15 05:02:42;;;;;;;27.80;19.80;;;;;;;-0.40;87.74;98863.39;109691;1272;23257;-70
2022/01/15 05:05:11;;;;;;;31.70;20.30;;;;;;;-0.40;87.64;98868.27;109681;1274;22456;-71
2022/01/15 05:07:39;;;;;;;33.30;22.50;;;;;;;-0.40;87.87;98863.92;109668;1273;22470;-70
2022/01/15 05:10:09;;;;;;;47.40;34.30;;;;;;;-0.43;87.79;98867.22;109592;1274;22553;-70
2022/01/15 05:15:09;;;;;;;56.40;37.50;;;;;;;-0.45;87.71;98869.09;109673;1274;22437;-70
2022/01/15 05:17:37;;;;;;;74.60;38.20;;;;;;;-0.44;87.78;98871.29;109687;1274;23140;-70
2022/01/15 05:20:06;;;;;;;76.40;42.10;;;;;;;-0.44;87.72;98870.48;109667;1274;22541;-70
2022/01/15 05:22:35;;;;;;;62.10;36.20;;;;;;;-0.46;87.80;98866.77;109672;1273;23431;-71
2022/01/15 05:25:07;;;;;;;52.60;34.40;;;;;;;-0.48;87.77;98869.34;109684;1274;22652;-70
2022/01/15 05:27:44;;;;;;;44.80;30.10;;;;;;;-0.52;87.81;98863.98;109689;1273;22433;-71
2022/01/15 05:30:13;;;;;;;39.80;26.40;;;;;;;-0.53;87.87;98865.27;109690;1273;22541;-70
2022/01/15 05:32:41;;;;;;;29.00;19.90;;;;;;;-0.55;87.89;98863.35;109669;1273;22486;-71
2022/01/15 05:35:10;;;;;;;46.10;31.10;;;;;;;-0.56;87.62;98864.86;109410;1274;23240;-71
2022/01/15 05:37:39;;;;;;;41.20;28.10;;;;;;;-0.55;87.72;98871.98;109614;1274;22539;-72
2022/01/15 05:40:07;;;;;;;36.10;23.10;;;;;;;-0.56;88.00;98863.55;109711;1273;23107;-72
2022/01/15 05:42:36;;;;;;;31.20;19.90;;;;;;;-0.58;87.76;98866.98;109684;1274;22477;-71
2022/01/15 05:45:04;;;;;;;29.30;17.80;;;;;;;-0.59;87.98;98865.47;109607;1274;23252;-71
2022/01/15 05:47:32;;;;;;;27.80;18.90;;;;;;;-0.58;87.86;98862.91;109599;1274;22438;-72
2022/01/15 05:50:00;;;;;;;79.80;45.40;;;;;;;-0.55;87.76;98866.86;109680;1273;22453;-71
2022/01/15 05:52:28;;;;;;;48.30;29.50;;;;;;;-0.54;87.80;98868.73;109691;1274;22849;-70
2022/01/15 05:54:57;;;;;;;35.60;24.00;;;;;;;-0.56;87.81;98871.57;109693;1272;23218;-71
2022/01/15 05:57:25;;;;;;;30.50;19.80;;;;;;;-0.56;87.99;98871.81;109673;1273;22202;-71
2022/01/15 05:59:53;;;;;;;26.40;17.20;;;;;;;-0.55;87.82;98875.00;109673;1273;22361;-71
2022/01/15 06:02:22;;;;;;;27.20;22.20;;;;;;;-0.54;87.78;98875.23;109679;1273;22454;-71
2022/01/15 06:04:50;;;;;;;26.40;19.80;;;;;;;-0.51;87.78;98877.39;109664;1273;22574;-72
2022/01/15 06:07:18;;;;;;;26.90;18.60;;;;;;;-0.49;87.65;98880.52;109676;1274;22455;-71
2022/01/15 06:09:46;;;;;;;27.40;20.20;;;;;;;-0.48;87.82;98881.06;109684;1273;22424;-71
2022/01/15 06:12:14;;;;;;;27.40;18.90;;;;;;;-0.48;87.83;98889.78;109586;1274;22565;-71
2022/01/15 06:14:42;;;;;;;29.40;18.70;;;;;;;-0.48;87.71;98894.34;109690;1274;23151;-71
2022/01/15 06:17:10;;;;;;;25.20;17.30;;;;;;;-0.46;87.72;98895.11;109685;1274;22456;-71
2022/01/15 06:19:38;;;;;;;32.30;24.10;;;;;;;-0.45;87.62;98895.12;109677;1273;22532;-71
2022/01/15 06:22:06;;;;;;;40.30;33.60;;;;;;;-0.47;87.65;98895.00;109667;1274;22586;-71
2022/01/15 06:24:34;;;;;;;42.50;33.50;;;;;;;-0.49;87.70;98896.38;109594;1273;22550;-71
2022/01/15 06:27:03;;;;;;;32.90;25.10;;;;;;;-0.53;87.72;98900.70;109598;1274;22730;-71
2022/01/15 06:29:31;;;;;;;30.20;21.30;;;;;;;-0.54;87.77;98900.70;109698;1273;22437;-71
2022/01/15 06:32:00;;;;;;;23.30;19.10;;;;;;;-0.53;87.73;98902.58;109684;1272;22497;-71
2022/01/15 06:34:28;;;;;;;26.90;19.90;;;;;;;-0.49;87.74;98903.30;109677;1272;22410;-72
2022/01/15 06:36:57;;;;;;;31.50;20.70;;;;;;;-0.50;87.60;98908.02;109590;1274;22403;-72
2022/01/15 06:39:25;;;;;;;29.90;24.50;;;;;;;-0.51;87.80;98905.49;109679;1273;23022;-72
2022/01/15 06:41:54;;;;;;;27.80;20.00;;;;;;;-0.51;87.73;98905.86;109689;1272;22238;-71
2022/01/15 06:44:22;;;;;;;31.70;19.50;;;;;;;-0.52;87.53;98904.52;109676;1274;22458;-71
2022/01/15 06:46:49;;;;;;;26.80;19.60;;;;;;;-0.52;87.65;98899.52;109693;1274;22250;-74
2022/01/15 06:49:17;;;;;;;28.50;18.80;;;;;;;-0.53;87.72;98901.18;109681;1274;23079;-73
2022/01/15 06:51:45;;;;;;;31.80;21.60;;;;;;;-0.55;87.75;98900.40;109659;1274;22579;-72
2022/01/15 06:54:13;;;;;;;33.60;21.40;;;;;;;-0.59;87.90;98902.03;109664;1274;23173;-73
2022/01/15 06:56:42;;;;;;;29.10;18.10;;;;;;;-0.63;87.77;98904.27;109672;1273;22464;-75
2022/01/15 06:59:10;;;;;;;30.20;20.60;;;;;;;-0.65;87.83;98907.02;109472;1274;138529;-70
2022/01/15 07:01:38;;;;;;;25.00;18.00;;;;;;;-0.62;87.71;98900.08;109668;1274;23228;-67
2022/01/15 07:04:06;;;;;;;29.20;19.80;;;;;;;-0.58;87.65;98901.77;109667;1273;22413;-68
2022/01/15 07:06:34;;;;;;;28.30;20.90;;;;;;;-0.59;87.66;98904.88;109688;1272;22447;-67
2022/01/15 07:09:02;;;;;;;29.10;20.80;;;;;;;-0.62;87.80;98913.19;109656;1274;22366;-68
2022/01/15 07:11:30;;;;;;;31.30;19.80;;;;;;;-0.64;87.68;98919.66;109664;1274;22496;-68
2022/01/15 07:13:58;;;;;;;25.90;19.90;;;;;;;-0.67;87.83;98923.53;109682;1273;22396;-67
2022/01/15 07:16:27;;;;;;;28.40;20.90;;;;;;;-0.66;87.85;98926.63;109680;1274;22390;-68
2022/01/15 07:18:55;;;;;;;31.90;23.20;;;;;;;-0.66;87.73;98926.83;109666;1273;22596;-67
2022/01/15 07:21:23;;;;;;;31.10;22.40;;;;;;;-0.69;87.72;98922.21;109681;1273;22394;-68
2022/01/15 07:23:51;;;;;;;31.00;22.60;;;;;;;-0.68;87.81;98930.57;109708;1273;22606;-68
2022/01/15 07:26:19;;;;;;;29.00;23.70;;;;;;;-0.69;87.95;98929.91;109614;1274;22543;-66
2022/01/15 07:28:47;;;;;;;27.50;21.30;;;;;;;-0.66;88.02;98932.80;109631;1273;22517;-68
2022/01/15 07:31:16;;;;;;;40.40;23.80;;;;;;;-0.63;87.93;98937.17;109573;1274;23328;-68
2022/01/15 07:33:44;;;;;;;27.80;22.00;;;;;;;-0.62;87.83;98933.99;109670;1274;22452;-68
2022/01/15 07:36:13;;;;;;;34.00;23.70;;;;;;;-0.62;87.99;98935.73;109680;1273;22595;-67
2022/01/15 07:38:41;;;;;;;39.10;27.50;;;;;;;-0.62;87.78;98936.67;109669;1274;22511;-68
2022/01/15 07:41:12;;;;;;;36.80;27.10;;;;;;;-0.62;87.79;98936.77;109684;1273;23207;-68
2022/01/15 07:43:42;;;;;;;36.20;26.00;;;;;;;-0.59;87.83;98939.79;109675;1274;22432;-68
2022/01/15 07:46:10;;;;;;;44.30;31.30;;;;;;;-0.59;87.79;98940.16;109673;1273;22454;-68
2022/01/15 07:48:38;;;;;;;41.30;30.30;;;;;;;-0.59;87.81;98938.94;109671;1273;22959;-68
2022/01/15 07:51:07;;;;;;;39.10;30.90;;;;;;;-0.57;87.92;98939.46;109667;1274;22463;-66
2022/01/15 07:53:35;;;;;;;36.90;28.70;;;;;;;-0.58;87.74;98935.72;109657;1274;22680;-67
2022/01/15 07:56:03;;;;;;;38.50;28.00;;;;;;;-0.59;87.71;98932.42;109650;1274;22569;-67
2022/01/15 07:58:31;;;;;;;35.50;25.40;;;;;;;-0.59;87.79;98935.89;109670;1273;22438;-68
2022/01/15 08:00:59;;;;;;;45.00;32.70;;;;;;;-0.56;87.58;98936.41;109666;1272;22395;-67
2022/01/15 08:03:30;;;;;;;40.40;31.10;;;;;;;-0.55;87.71;98931.36;109662;1273;23099;-67
2022/01/15 08:05:58;;;;;;;37.00;30.80;;;;;;;-0.55;87.86;98937.68;109652;1273;22421;-67
2022/01/15 08:08:27;;;;;;;39.40;29.00;;;;;;;-0.55;87.85;98937.32;109565;1274;138076;-67
2022/01/15 08:10:55;;;;;;;36.70;27.60;;;;;;;-0.55;87.61;98940.13;109586;1274;22412;-67
2022/01/15 08:13:24;;;;;;;34.20;25.40;;;;;;;-0.54;87.65;98942.48;109673;1274;23316;-67
2022/01/15 08:15:53;;;;;;;38.00;26.70;;;;;;;-0.51;87.79;98939.18;109671;1274;22462;-67
2022/01/15 08:18:21;;;;;;;34.00;27.50;;;;;;;-0.48;87.62;98939.52;109671;1274;22513;-68
2022/01/15 08:20:50;;;;;;;37.20;28.90;;;;;;;-0.49;87.60;98944.98;109685;1274;22505;-67
2022/01/15 08:23:18;;;;;;;36.30;30.00;;;;;;;-0.49;87.79;98948.92;109669;1274;22438;-67
2022/01/15 08:25:46;;;;;;;34.60;28.90;;;;;;;-0.48;87.70;98954.11;109659;1273;22450;-68
2022/01/15 08:28:15;;;;;;;41.60;26.80;;;;;;;-0.44;87.72;98957.08;109672;1274;22378;-68
2022/01/15 08:30:43;;;;;;;41.00;28.50;;;;;;;-0.42;87.47;98957.48;109586;1274;22539;-68
2022/01/15 08:33:12;;;;;;;32.40;24.30;;;;;;;-0.40;87.78;98958.02;109646;1273;22456;-68
2022/01/15 08:35:40;;;;;;;39.10;28.70;;;;;;;-0.39;87.62;98956.84;109675;1273;22526;-66
2022/01/15 08:38:08;;;;;;;38.70;25.00;;;;;;;-0.40;87.52;98950.85;109694;1274;22440;-66
2022/01/15 08:40:36;;;;;;;33.10;25.50;;;;;;;-0.38;87.55;98953.30;109665;1274;22574;-68
2022/01/15 08:43:04;;;;;;;37.30;28.30;;;;;;;-0.35;87.45;98950.05;109669;1274;22497;-68
2022/01/15 08:45:34;;;;;;;44.50;38.10;;;;;;;-0.31;87.57;98950.20;109659;1274;22453;-67
2022/01/15 08:48:03;;;;;;;41.00;24.50;;;;;;;-0.29;87.35;98960.89;109659;1272;23079;-67
2022/01/15 08:50:31;;;;;;;36.90;26.80;;;;;;;-0.26;87.34;98962.48;109665;1273;23121;-68
2022/01/15 08:52:59;;;;;;;34.70;24.40;;;;;;;-0.23;87.11;98959.95;109675;1274;22323;-68
2022/01/15 08:55:29;;;;;;;52.90;34.40;;;;;;;-0.18;87.04;98959.88;109672;1274;22617;-68
2022/01/15 08:58:02;;;;;;;46.20;32.40;;;;;;;-0.14;87.12;98954.86;109673;1274;22493;-68
2022/01/15 09:00:31;;;;;;;47.20;35.80;;;;;;;-0.08;87.26;98956.70;109653;1274;22472;-68
2022/01/15 09:03:00;;;;;;;44.90;32.00;;;;;;;-0.04;87.13;98957.73;109666;1273;22553;-69
2022/01/15 09:05:31;;;;;;;40.10;29.90;;;;;;;0.02;87.13;98961.55;109668;1273;22419;-68
2022/01/15 09:08:01;;;;;;;37.50;26.80;;;;;;;0.10;86.38;98959.14;109570;1274;22544;-68
2022/01/15 09:10:30;;;;;;;39.50;28.70;;;;;;;0.15;86.36;98955.08;109665;1273;22515;-68
2022/01/15 09:12:58;;;;;;;40.40;28.30;;;;;;;0.19;86.15;98962.23;109673;1273;22462;-69
2022/01/15 09:15:30;;;;;;;40.40;26.40;;;;;;;0.23;85.83;98962.48;109658;1274;22385;-68
2022/01/15 09:17:58;;;;;;;49.30;33.20;;;;;;;0.28;86.15;98959.70;109652;1273;23225;-69
2022/01/15 09:20:28;;;;;;;50.60;32.50;;;;;;;0.36;86.09;98957.48;109557;1274;139169;-68
2022/01/15 09:22:56;;;;;;;34.60;24.40;;;;;;;0.47;85.47;98966.00;109661;1274;22536;-69
2022/01/15 09:25:27;;;;;;;36.30;26.20;;;;;;;0.57;85.76;98962.91;109685;1274;22539;-69
2022/01/15 09:30:43;;;;;;;36.90;25.80;;;;;;;0.73;85.34;98970.75;109681;1274;22459;-69
2022/01/15 09:33:11;;;;;;;31.40;22.80;;;;;;;0.77;85.44;98961.83;109676;1274;22473;-68
2022/01/15 09:35:39;;;;;;;30.60;21.10;;;;;;;0.86;85.06;98958.79;109669;1273;22422;-69
2022/01/15 09:38:07;;;;;;;24.80;19.50;;;;;;;0.95;84.91;98957.57;109652;1274;22451;-69
2022/01/15 09:40:36;;;;;;;24.10;18.60;;;;;;;0.94;82.90;98965.77;109672;1273;23144;-68
2022/01/15 09:43:04;;;;;;;24.10;17.80;;;;;;;0.92;81.77;98962.92;109610;1273;22490;-68
2022/01/15 09:45:35;;;;;;;30.90;20.40;;;;;;;0.82;80.48;98966.47;109669;1274;22465;-68
2022/01/15 09:48:06;;;;;;;29.60;20.10;;;;;;;0.79;80.08;98959.30;109679;1273;23241;-68
2022/01/15 09:50:37;;;;;;;25.60;17.70;;;;;;;0.79;79.16;98969.41;109669;1273;22434;-68
2022/01/15 09:53:05;;;;;;;26.30;18.90;;;;;;;0.83;80.71;98960.71;109697;1274;22567;-68
2022/01/15 09:55:33;;;;;;;24.30;17.60;;;;;;;0.95;81.95;98957.68;109677;1274;22915;-66
2022/01/15 09:58:02;;;;;;;27.80;19.60;;;;;;;1.02;79.14;98957.05;109674;1273;22645;-67
2022/01/15 10:00:30;;;;;;;29.20;22.20;;;;;;;1.04;78.09;98954.88;109575;1274;137458;-68
2022/01/15 10:03:02;;;;;;;29.10;19.60;;;;;;;1.07;79.29;98947.09;109635;1274;22463;-68
2022/01/15 10:05:32;;;;;;;31.60;19.50;;;;;;;1.08;78.21;98943.42;109586;1274;23748;-69
2022/01/15 10:08:09;;;;;;;27.80;20.30;;;;;;;1.10;78.76;98944.39;109692;1273;22447;-67
2022/01/15 10:10:40;;;;;;;37.10;23.10;;;;;;;1.17;80.19;98940.56;109556;1274;22563;-68
2022/01/15 10:13:17;;;;;;;25.30;19.10;;;;;;;1.26;78.90;98948.92;109654;1273;23088;-68
2022/01/15 10:16:08;;;;;;;25.60;19.40;;;;;;;1.28;75.93;98959.25;109573;1274;22339;-68
2022/01/15 10:18:47;;;;;;;30.00;20.30;;;;;;;1.24;76.86;98951.60;109603;1273;22469;-68
2022/01/15 10:21:16;;;;;;;28.70;20.30;;;;;;;1.27;77.37;98954.85;109577;1274;23140;-68
2022/01/15 10:23:56;;;;;;;31.80;21.20;;;;;;;1.30;76.89;98954.74;109624;1273;22455;-69
2022/01/15 10:26:26;;;;;;;27.00;19.30;;;;;;;1.36;75.26;98959.27;109661;1274;23211;-68
2022/01/15 10:29:00;;;;;;;28.10;18.70;;;;;;;1.37;73.50;98965.86;109623;1273;22404;-68
2022/01/15 10:31:39;;;;;;;23.10;17.00;;;;;;;1.39;75.00;98954.41;109678;1274;22494;-68
2022/01/15 10:34:26;;;;;;;27.50;18.70;;;;;;;1.45;75.71;98945.48;109685;1274;23208;-67
2022/01/15 10:37:07;;;;;;;27.10;18.40;;;;;;;1.54;75.68;98941.20;109672;1273;22393;-67
2022/01/15 10:39:35;;;;;;;27.80;19.80;;;;;;;1.60;74.53;98950.23;109673;1273;23280;-67
2022/01/15 10:42:14;;;;;;;33.00;22.20;;;;;;;1.66;76.70;98949.80;109679;1274;23218;-67
2022/01/15 10:44:42;;;;;;;28.10;20.70;;;;;;;1.72;75.35;98958.45;109574;1274;22554;-67
2022/01/15 10:47:13;;;;;;;36.80;25.20;;;;;;;1.76;75.55;98951.77;109657;1274;22458;-67
2022/01/15 10:49:42;;;;;;;32.50;21.20;;;;;;;1.79;73.87;98950.80;109670;1274;22547;-67
2022/01/15 10:52:26;;;;;;;31.90;19.30;;;;;;;1.76;73.24;98956.47;109659;1273;22517;-67
2022/01/15 10:55:06;;;;;;;28.30;19.60;;;;;;;1.68;71.85;98957.84;109649;1274;22446;-68
2022/01/15 10:57:37;;;;;;;28.70;20.50;;;;;;;1.64;72.26;98950.13;109671;1274;22447;-67
2022/01/15 11:00:12;;;;;;;29.70;19.80;;;;;;;1.66;73.81;98941.87;109664;1273;22406;-67
2022/01/15 11:02:42;;;;;;;23.10;17.40;;;;;;;1.69;72.31;98952.67;109685;1274;22581;-65
2022/01/15 11:05:25;;;;;;;25.70;18.10;;;;;;;1.75;72.69;98957.05;109674;1273;22409;-67
2022/01/15 11:08:04;;;;;;;25.60;19.00;;;;;;;1.75;71.66;98962.65;109660;1273;23121;-67
2022/01/15 11:10:53;;;;;;;29.20;20.40;;;;;;;1.77;71.40;98960.78;109681;1273;22532;-67
2022/01/15 11:13:24;;;;;;;25.20;18.90;;;;;;;1.77;71.64;98954.46;109677;1273;22565;-67
2022/01/15 11:15:54;;;;;;;28.60;19.40;;;;;;;1.80;71.69;98951.61;109693;1274;22482;-67
2022/01/15 11:18:43;;;;;;;25.30;17.40;;;;;;;1.84;70.77;98953.09;109574;1274;22255;-67
2022/01/15 11:21:13;;;;;;;27.30;19.20;;;;;;;1.85;71.26;98950.84;109680;1273;22616;-67
2022/01/15 11:23:43;;;;;;;28.90;19.60;;;;;;;1.83;70.76;98942.31;109701;1273;22449;-67
2022/01/15 11:26:23;;;;;;;25.60;17.80;;;;;;;1.85;70.94;98945.31;109654;1273;22469;-67
2022/01/15 11:28:53;;;;;;;26.60;19.40;;;;;;;1.88;69.89;98948.90;109683;1273;23121;-66
2022/01/15 11:31:28;;;;;;;28.80;18.80;;;;;;;1.90;69.43;98949.61;109682;1274;22408;-68
2022/01/15 11:33:59;;;;;;;29.40;19.40;;;;;;;2.00;68.74;98954.08;109673;1274;22824;-67
2022/01/15 11:36:36;;;;;;;26.90;18.50;;;;;;;2.19;69.10;98950.77;109698;1274;22332;-68
2022/01/15 11:39:12;;;;;;;26.60;19.10;;;;;;;2.39;67.81;98953.03;109665;1272;22549;-68
2022/01/15 11:41:44;;;;;;;27.80;19.70;;;;;;;2.58;68.74;98947.88;109669;1274;22742;-68
2022/01/15 11:44:14;;;;;;;30.20;21.20;;;;;;;2.74;69.41;98949.48;109594;1274;22303;-67
2022/01/15 11:46:54;;;;;;;26.70;18.10;;;;;;;2.94;67.95;98939.45;109684;1273;23626;-67
2022/01/15 11:49:28;;;;;;;26.70;17.20;;;;;;;3.23;69.19;98944.86;109660;1274;22423;-68
2022/01/15 11:52:06;;;;;;;24.10;17.50;;;;;;;3.41;67.35;98950.97;109655;1274;22532;-68
2022/01/15 11:55:05;;;;;;;26.60;19.50;;;;;;;3.43;66.61;98942.54;109673;1272;22462;-68
2022/01/15 11:57:35;;;;;;;28.90;21.50;;;;;;;3.47;66.69;98947.70;109664;1273;22898;-66